Time;durP1;ratioP1;P1;durP2;ratioP2;P2;SDS_P1;SDS_P2;PMS_P1;PMS_P2;Temp;Humidity;BMP_temperature;BMP_pressure;BME280_temperature;BME280_humidity;BME280_pressure;Samples;Min_cycle;Max_cycle;Signal;HPM_P1;HPM_P2
2023/06/19 00:00:15;;;;;;;6.30;3.30;;;;;;;20.74;73.33;100257.22;5144201;28;20019;-72
2023/06/19 00:02:45;;;;;;;4.40;2.88;;;;;;;20.83;72.70;100256.50;5145299;28;20395;-72
2023/06/19 00:05:16;;;;;;;4.32;2.90;;;;;;;20.86;73.19;100253.59;5137766;28;20026;-72
2023/06/19 00:07:46;;;;;;;7.88;3.28;;;;;;;20.84;73.32;100252.88;5144981;28;20023;-72
2023/06/19 00:10:16;;;;;;;6.72;3.45;;;;;;;20.82;73.93;100249.47;5140088;28;20290;-71
2023/06/19 00:12:46;;;;;;;4.18;2.83;;;;;;;20.69;74.01;100248.78;5139853;28;20058;-71
2023/06/19 00:15:17;;;;;;;5.65;3.47;;;;;;;20.64;74.63;100259.94;5147809;28;20030;-71
2023/06/19 00:17:47;;;;;;;3.83;2.85;;;;;;;20.69;74.74;100253.28;5136185;28;20149;-72
2023/06/19 00:20:17;;;;;;;5.85;3.20;;;;;;;20.71;73.64;100254.00;5152068;28;20112;-71
2023/06/19 00:22:51;;;;;;;5.30;3.10;;;;;;;20.69;73.69;100250.63;5152751;28;20030;-70
2023/06/19 00:25:21;;;;;;;4.70;2.72;;;;;;;20.77;73.36;100253.47;5151943;28;20034;-71
2023/06/19 00:27:52;;;;;;;7.25;3.13;;;;;;;20.88;72.38;100242.84;5151456;28;20041;-71
2023/06/19 00:30:22;;;;;;;6.47;3.35;;;;;;;20.91;71.86;100232.78;5145015;28;20117;-71
2023/06/19 00:32:52;;;;;;;4.60;2.90;;;;;;;20.90;72.12;100239.06;5151413;28;20037;-72
2023/06/19 00:35:23;;;;;;;4.30;2.92;;;;;;;21.18;69.75;100235.81;5145233;28;20581;-72
2023/06/19 00:37:53;;;;;;;4.10;2.92;;;;;;;21.29;69.37;100233.09;5150128;28;20033;-71
2023/06/19 00:40:29;;;;;;;5.50;3.28;;;;;;;21.57;67.40;100236.91;5141035;28;20484;-72
2023/06/19 00:42:59;;;;;;;;;;;;;;;21.71;66.60;100233.91;5152373;28;20026;-71
2023/06/19 00:45:30;;;;;;;4.45;2.88;;;;;;;21.75;66.97;100230.84;5178082;23;19921;-73
2023/06/19 00:48:01;;;;;;;5.43;2.92;;;;;;;21.80;66.71;100223.31;5151455;28;20030;-75
2023/06/19 00:50:32;;;;;;;6.00;3.20;;;;;;;21.83;66.71;100231.03;5159522;28;20037;-75
2023/06/19 00:53:04;;;;;;;4.35;2.90;;;;;;;21.73;67.53;100226.66;5140345;28;20049;-75
2023/06/19 00:55:34;;;;;;;6.18;3.08;;;;;;;21.80;66.79;100227.78;5167746;28;20030;-76
2023/06/19 00:58:05;;;;;;;4.35;2.80;;;;;;;21.81;66.81;100214.38;5169603;28;20160;-75
2023/06/19 01:00:36;;;;;;;5.65;2.95;;;;;;;21.73;66.90;100211.50;5174708;28;20068;-75
2023/06/19 01:03:06;;;;;;;4.20;2.60;;;;;;;21.88;66.25;100214.66;5169446;28;20034;-76
2023/06/19 01:05:36;;;;;;;4.00;2.72;;;;;;;22.00;64.94;100206.44;5156526;28;20121;-75
2023/06/19 01:08:18;;;;;;;6.22;3.17;;;;;;;22.07;65.08;100204.91;5169066;28;20317;-75
2023/06/19 01:10:55;;;;;;;4.00;3.00;;;;;;;22.10;65.00;100196.66;5151592;28;20030;-71
2023/06/19 01:13:34;;;;;;;3.92;2.63;;;;;;;22.12;64.83;100196.53;5167826;28;20034;-76
2023/06/19 01:16:07;;;;;;;3.90;2.80;;;;;;;22.09;65.01;100197.63;5165267;28;20117;-76
2023/06/19 01:18:37;;;;;;;5.70;3.22;;;;;;;22.15;64.68;100191.78;5150445;28;20030;-75
2023/06/19 01:21:16;;;;;;;3.65;2.63;;;;;;;22.12;65.03;100184.03;5151479;28;20060;-74
2023/06/19 01:23:47;;;;;;;5.15;2.80;;;;;;;22.09;65.25;100186.16;5150282;28;20407;-76
2023/06/19 01:26:20;;;;;;;7.10;2.88;;;;;;;22.17;64.69;100178.31;5171895;28;20152;-74
2023/06/19 01:28:51;;;;;;;5.15;2.97;;;;;;;22.23;64.63;100175.13;5170461;28;20038;-76
2023/06/19 01:31:25;;;;;;;6.93;2.80;;;;;;;22.13;65.00;100166.25;5167023;28;20030;-74
2023/06/19 01:33:56;;;;;;;3.70;2.40;;;;;;;22.13;64.84;100166.25;5156243;28;20129;-77
2023/06/19 01:36:27;;;;;;;4.45;3.00;;;;;;;22.13;65.03;100167.13;5169059;28;20035;-75
2023/06/19 01:38:59;;;;;;;7.75;3.05;;;;;;;22.13;64.99;100160.94;5169093;28;20021;-76
2023/06/19 01:41:31;;;;;;;4.13;2.70;;;;;;;22.09;65.25;100167.50;5165355;28;20408;-75
2023/06/19 01:44:02;;;;;;;4.30;3.05;;;;;;;21.99;65.73;100158.66;5168128;28;20036;-75
2023/06/19 01:46:33;;;;;;;4.35;3.30;;;;;;;21.99;65.59;100154.19;5165151;28;20037;-75
2023/06/19 01:49:07;;;;;;;5.22;2.97;;;;;;;21.97;65.69;100164.13;5165991;28;20045;-75
2023/06/19 01:51:38;;;;;;;3.88;2.80;;;;;;;21.94;66.10;100160.88;5167518;28;20049;-76
2023/06/19 01:54:08;;;;;;;6.55;3.10;;;;;;;21.86;66.51;100155.38;5146440;28;20462;-76
2023/06/19 01:56:39;;;;;;;5.53;3.00;;;;;;;21.83;66.63;100147.69;5164996;28;20092;-76
2023/06/19 01:59:09;;;;;;;4.85;3.00;;;;;;;21.83;66.58;100155.66;5162706;28;20053;-74
2023/06/19 02:01:39;;;;;;;4.80;2.72;;;;;;;21.72;66.69;100155.78;5164404;28;20026;-74
2023/06/19 02:04:10;;;;;;;5.97;3.00;;;;;;;21.69;67.06;100153.38;5168570;28;20033;-73
2023/06/19 02:06:40;;;;;;;5.28;3.08;;;;;;;21.59;67.51;100155.13;5168010;28;20117;-75
2023/06/19 02:09:10;;;;;;;4.38;2.80;;;;;;;21.50;68.04;100154.13;5151684;28;20031;-75
2023/06/19 02:11:41;;;;;;;4.95;2.90;;;;;;;21.46;68.78;100155.38;5168368;28;20044;-75
2023/06/19 02:14:11;;;;;;;5.18;3.17;;;;;;;21.43;69.64;100157.44;5164530;28;20038;-75
2023/06/19 02:16:43;;;;;;;5.18;3.05;;;;;;;21.30;70.20;100159.47;5149787;28;20425;-75
2023/06/19 02:19:13;;;;;;;5.20;2.97;;;;;;;21.26;71.17;100168.69;5172866;28;20038;-75
2023/06/19 02:21:43;;;;;;;4.13;2.80;;;;;;;21.08;71.64;100162.28;5171796;28;20541;-75
2023/06/19 02:24:14;;;;;;;5.25;3.47;;;;;;;20.92;72.52;100159.25;5150513;28;20495;-75
2023/06/19 02:26:44;;;;;;;6.43;3.47;;;;;;;20.77;73.16;100165.81;5170984;28;20522;-75
2023/06/19 02:29:15;;;;;;;6.47;3.10;;;;;;;20.77;73.24;100171.13;5168358;28;20026;-76
2023/06/19 02:31:45;;;;;;;5.68;3.42;;;;;;;20.78;72.74;100167.50;5170865;28;20424;-75
2023/06/19 02:34:16;;;;;;;5.28;3.42;;;;;;;20.72;73.75;100160.03;5170353;28;20494;-75
2023/06/19 02:36:47;;;;;;;7.32;3.30;;;;;;;20.56;74.30;100167.59;5171044;28;20116;-75
2023/06/19 02:39:18;;;;;;;8.27;3.42;;;;;;;20.53;74.77;100162.56;5171409;28;20058;-75
2023/06/19 02:41:48;;;;;;;5.03;3.40;;;;;;;20.47;75.22;100157.72;5156117;28;20483;-71
2023/06/19 02:44:18;;;;;;;4.32;3.00;;;;;;;20.52;74.61;100152.91;5166474;28;20057;-75
2023/06/19 02:46:49;;;;;;;4.80;3.35;;;;;;;20.47;74.78;100152.41;5153632;28;20180;-73
2023/06/19 02:49:19;;;;;;;5.57;3.40;;;;;;;20.44;75.58;100160.66;5166656;28;20572;-76
2023/06/19 02:51:49;;;;;;;6.97;3.60;;;;;;;20.39;75.96;100149.56;5174006;28;20022;-75
2023/06/19 02:54:20;;;;;;;4.75;3.30;;;;;;;20.36;76.39;100146.31;5166669;28;20068;-75
2023/06/19 02:56:50;;;;;;;6.32;3.45;;;;;;;20.37;76.07;100145.34;5170220;28;20116;-72
2023/06/19 02:59:20;;;;;;;5.63;3.95;;;;;;;20.31;77.04;100152.00;5169511;28;20156;-76
2023/06/19 03:01:51;;;;;;;4.75;3.22;;;;;;;20.36;77.39;100151.63;5169810;28;20076;-76
2023/06/19 03:04:22;;;;;;;4.97;3.50;;;;;;;20.39;76.52;100152.22;5169386;28;20178;-75
2023/06/19 03:06:52;;;;;;;4.72;3.17;;;;;;;20.35;76.83;100148.13;5169485;28;20247;-75
2023/06/19 03:09:23;;;;;;;4.63;3.15;;;;;;;20.25;76.97;100149.84;5153279;28;20050;-75
2023/06/19 03:11:54;;;;;;;6.40;3.80;;;;;;;20.27;77.60;100147.09;5170740;28;20025;-76
2023/06/19 03:14:24;;;;;;;5.57;3.60;;;;;;;20.33;76.33;100152.69;5168424;28;20092;-75
2023/06/19 03:16:55;;;;;;;4.97;3.53;;;;;;;20.45;75.64;100149.03;5169727;28;20018;-71
2023/06/19 03:19:25;;;;;;;6.20;3.50;;;;;;;20.43;75.92;100145.69;5167458;28;20033;-75
2023/06/19 03:21:55;;;;;;;5.07;3.40;;;;;;;20.59;75.62;100146.09;5151215;28;20120;-75
2023/06/19 03:24:27;;;;;;;4.50;3.30;;;;;;;20.45;76.44;100153.53;5166238;28;20045;-75
2023/06/19 03:26:57;;;;;;;8.25;3.47;;;;;;;20.38;76.48;100147.88;5153444;28;20392;-75
2023/06/19 03:29:27;;;;;;;4.88;3.30;;;;;;;20.42;76.79;100156.41;5166815;28;20030;-76
2023/06/19 03:31:58;;;;;;;7.35;3.28;;;;;;;20.37;77.30;100148.84;5170633;28;20245;-75
2023/06/19 03:34:28;;;;;;;4.85;3.40;;;;;;;20.39;75.94;100144.25;5154156;28;20580;-75
2023/06/19 03:36:58;;;;;;;6.38;3.88;;;;;;;20.40;76.04;100135.31;5169386;28;20024;-75
2023/06/19 03:39:29;;;;;;;5.57;3.60;;;;;;;20.48;75.98;100143.47;5170513;28;20038;-75
2023/06/19 03:41:59;;;;;;;7.90;3.67;;;;;;;20.48;76.52;100143.47;5168940;28;20111;-76
2023/06/19 03:44:29;;;;;;;5.53;3.60;;;;;;;20.37;76.67;100146.19;5167388;28;20031;-75
2023/06/19 03:46:59;;;;;;;5.85;3.60;;;;;;;20.26;77.72;100146.22;5170116;28;20034;-73
2023/06/19 03:49:30;;;;;;;6.03;3.65;;;;;;;20.31;77.38;100141.38;5165847;28;20038;-75
2023/06/19 03:52:01;;;;;;;5.07;3.63;;;;;;;20.25;78.68;100141.88;5166648;28;20312;-73
2023/06/19 03:54:32;;;;;;;6.13;3.75;;;;;;;20.19;80.20;100162.78;5163509;28;20022;-75
2023/06/19 03:57:03;;;;;;;5.90;3.70;;;;;;;20.19;80.67;100166.28;5166836;28;20052;-75
2023/06/19 03:59:33;;;;;;;6.63;3.85;;;;;;;20.19;79.83;100168.94;5167258;28;20034;-76
2023/06/19 04:02:04;;;;;;;5.97;4.03;;;;;;;20.14;81.10;100168.44;5150059;28;20026;-75
2023/06/19 04:04:34;;;;;;;5.65;3.58;;;;;;;20.13;82.38;100173.91;5166090;28;20041;-75
2023/06/19 04:07:05;;;;;;;6.18;4.28;;;;;;;20.04;83.34;100179.94;5145119;28;20021;-75
2023/06/19 04:09:35;;;;;;;4.85;3.47;;;;;;;20.10;84.24;100184.78;5166379;28;20217;-76
2023/06/19 04:12:06;;;;;;;5.45;4.15;;;;;;;20.08;85.10;100176.91;5166063;28;20242;-75
2023/06/19 04:14:36;;;;;;;6.32;4.10;;;;;;;19.98;84.81;100175.09;5167165;28;20041;-75
2023/06/19 04:17:06;;;;;;;6.80;4.38;;;;;;;19.91;85.70;100179.19;5167738;28;20029;-75
2023/06/19 04:19:36;;;;;;;10.18;4.32;;;;;;;19.90;86.55;100183.66;5145905;28;20515;-76
2023/06/19 04:22:07;;;;;;;6.95;4.40;;;;;;;19.87;85.60;100183.06;5143059;28;20037;-75
2023/06/19 04:24:37;;;;;;;6.90;4.32;;;;;;;19.84;85.56;100178.88;5161738;28;20072;-76
2023/06/19 04:27:08;;;;;;;7.75;3.90;;;;;;;19.88;86.92;100179.44;5161574;28;20563;-75
2023/06/19 04:29:38;;;;;;;6.22;4.38;;;;;;;19.85;87.40;100180.56;5164442;28;20121;-75
2023/06/19 04:32:11;;;;;;;6.75;4.30;;;;;;;19.81;88.38;100173.78;5146591;28;20440;-75
2023/06/19 04:34:46;;;;;;;5.93;4.15;;;;;;;19.89;87.27;100184.63;5148205;28;20026;-75
2023/06/19 04:37:19;;;;;;;7.22;4.45;;;;;;;19.93;87.49;100166.69;5160858;28;20026;-76
2023/06/19 04:39:49;;;;;;;7.03;4.47;;;;;;;19.94;87.68;100178.97;5149414;28;20036;-73
2023/06/19 04:42:20;;;;;;;7.05;4.57;;;;;;;19.97;87.61;100173.41;5160625;28;20185;-74
2023/06/19 04:44:50;;;;;;;5.30;3.90;;;;;;;19.90;87.85;100162.44;5157490;28;20033;-76
2023/06/19 04:47:23;;;;;;;6.00;4.43;;;;;;;19.99;88.00;100160.88;5136428;28;20073;-74
2023/06/19 04:49:53;;;;;;;5.50;3.92;;;;;;;19.94;88.67;100169.19;5142133;28;20043;-76
2023/06/19 04:52:23;;;;;;;7.85;4.63;;;;;;;19.93;88.95;100175.47;5161580;28;20038;-75
2023/06/19 04:54:54;;;;;;;6.15;4.20;;;;;;;19.87;91.61;100193.66;5162786;28;20056;-75
2023/06/19 04:57:24;;;;;;;7.00;4.40;;;;;;;19.91;90.12;100190.66;5163071;28;20223;-75
2023/06/19 04:59:54;;;;;;;5.32;3.95;;;;;;;20.07;87.94;100188.50;5164104;28;20084;-75
2023/06/19 05:02:25;;;;;;;6.88;4.20;;;;;;;20.06;88.90;100188.63;5160282;28;20526;-75
2023/06/19 05:04:55;;;;;;;6.00;4.18;;;;;;;20.07;88.94;100196.47;5163901;28;20328;-75
2023/06/19 05:07:25;;;;;;;6.75;4.45;;;;;;;19.96;88.69;100204.38;5161066;28;20496;-75
2023/06/19 05:09:56;;;;;;;7.25;4.13;;;;;;;19.95;88.88;100196.56;5163803;28;20080;-75
2023/06/19 05:12:26;;;;;;;5.35;3.92;;;;;;;20.02;88.60;100193.34;5161410;28;20189;-76
2023/06/19 05:14:56;;;;;;;7.45;4.80;;;;;;;20.21;87.58;100188.25;5159223;28;20049;-75
2023/06/19 05:17:27;;;;;;;5.95;4.38;;;;;;;19.97;88.40;100192.81;5142794;28;20038;-75
2023/06/19 05:19:58;;;;;;;7.82;4.55;;;;;;;19.91;89.29;100193.31;5144743;28;20365;-75
2023/06/19 05:22:29;;;;;;;8.30;4.03;;;;;;;19.92;91.47;100202.97;5157366;28;20296;-75
2023/06/19 05:25:00;;;;;;;7.20;4.43;;;;;;;19.82;91.68;100196.69;5159756;28;20707;-76
2023/06/19 05:27:30;;;;;;;7.35;4.53;;;;;;;19.86;91.74;100187.53;5144165;28;20395;-75
2023/06/19 05:30:00;;;;;;;6.30;4.30;;;;;;;19.87;91.84;100183.06;5154509;28;20026;-75
2023/06/19 05:32:31;;;;;;;6.82;4.55;;;;;;;19.84;92.29;100185.97;5158696;28;20073;-75
2023/06/19 05:35:01;;;;;;;9.02;4.90;;;;;;;19.82;93.49;100187.91;5161128;28;20080;-74
2023/06/19 05:37:31;;;;;;;7.22;4.43;;;;;;;19.78;92.93;100194.41;5162895;28;20117;-74
2023/06/19 05:40:02;;;;;;;7.00;4.65;;;;;;;19.81;93.23;100194.16;5163809;28;20116;-75
2023/06/19 05:42:32;;;;;;;8.32;4.70;;;;;;;19.80;92.69;100203.09;5159780;28;20030;-76
2023/06/19 05:45:04;;;;;;;8.57;4.60;;;;;;;19.71;93.31;100199.34;5140871;28;20522;-75
2023/06/19 05:47:34;;;;;;;6.57;4.82;;;;;;;19.83;93.19;100193.09;5140482;28;20356;-75
2023/06/19 05:50:05;;;;;;;6.10;4.43;;;;;;;19.78;95.55;100181.97;5163780;28;20403;-75
2023/06/19 05:52:35;;;;;;;7.97;4.90;;;;;;;19.71;99.50;100183.44;5140376;28;20286;-74
2023/06/19 05:55:06;;;;;;;7.43;4.93;;;;;;;19.78;99.25;100187.28;5139537;28;20026;-74
2023/06/19 05:57:36;;;;;;;7.13;4.80;;;;;;;19.67;100.00;100203.22;5164288;28;20073;-75
2023/06/19 06:00:11;;;;;;;7.75;4.95;;;;;;;19.67;100.00;100197.06;5145574;28;20221;-75
2023/06/19 06:02:41;;;;;;;6.45;4.55;;;;;;;19.62;100.00;100194.75;5165305;28;20479;-75
2023/06/19 06:05:11;;;;;;;8.23;4.97;;;;;;;19.71;100.00;100215.28;5160966;28;20042;-75
2023/06/19 06:07:42;;;;;;;7.35;5.05;;;;;;;19.81;100.00;100218.88;5161448;28;20056;-75
2023/06/19 06:10:13;;;;;;;8.02;5.40;;;;;;;19.61;100.00;100222.25;5159687;28;20504;-76
2023/06/19 06:12:44;;;;;;;7.45;4.85;;;;;;;19.48;100.00;100225.97;5164380;28;20041;-75
2023/06/19 06:15:14;;;;;;;7.45;4.90;;;;;;;19.49;100.00;100235.63;5141713;28;20026;-75
2023/06/19 06:17:44;;;;;;;6.72;4.80;;;;;;;19.62;100.00;100236.38;5164197;28;20036;-76
2023/06/19 06:20:15;;;;;;;7.38;4.88;;;;;;;19.57;100.00;100231.41;5160674;28;20022;-75
2023/06/19 06:22:45;;;;;;;7.65;4.72;;;;;;;19.72;100.00;100232.00;5164910;28;20037;-75
2023/06/19 06:25:15;;;;;;;7.20;4.93;;;;;;;19.75;100.00;100235.28;5158117;28;20511;-74
2023/06/19 06:27:45;;;;;;;7.03;4.97;;;;;;;20.04;99.26;100238.31;5160878;28;20068;-75
2023/06/19 06:30:16;;;;;;;6.93;5.05;;;;;;;20.07;99.88;100225.66;5163599;28;20121;-75
2023/06/19 06:32:46;;;;;;;7.03;5.20;;;;;;;20.11;100.00;100228.91;5158501;28;20396;-75
2023/06/19 06:35:16;;;;;;;8.57;5.18;;;;;;;20.23;100.00;100227.91;5163343;28;20468;-74
2023/06/19 06:37:49;;;;;;;6.75;4.85;;;;;;;20.31;100.00;100234.28;5161653;28;20030;-75
2023/06/19 06:40:20;;;;;;;7.50;5.18;;;;;;;20.44;100.00;100245.59;5145022;28;20022;-75
2023/06/19 06:42:50;;;;;;;8.10;5.63;;;;;;;20.42;100.00;100244.03;5161410;28;20033;-74
2023/06/19 06:45:21;;;;;;;8.43;4.88;;;;;;;20.55;100.00;100240.28;5162143;28;20495;-75
2023/06/19 06:47:51;;;;;;;8.38;5.30;;;;;;;20.70;97.13;100245.16;5161493;28;20068;-75
2023/06/19 06:50:21;;;;;;;5.90;4.28;;;;;;;20.94;97.11;100243.19;5163277;28;20128;-74
2023/06/19 06:52:52;;;;;;;7.88;4.72;;;;;;;20.82;92.29;100243.31;5158760;28;20288;-75
2023/06/19 06:55:22;;;;;;;8.05;4.50;;;;;;;20.90;92.16;100236.41;5158603;28;20038;-73
2023/06/19 06:57:52;;;;;;;5.70;4.43;;;;;;;21.00;92.52;100236.50;5141403;28;20022;-73
2023/06/19 07:00:23;;;;;;;7.97;4.63;;;;;;;21.15;94.27;100235.22;5152506;28;20035;-75
2023/06/19 07:02:53;;;;;;;6.05;4.30;;;;;;;21.51;93.91;100232.06;5151749;28;20040;-73
2023/06/19 07:05:24;;;;;;;8.55;4.90;;;;;;;21.89;91.19;100241.13;5143351;28;20066;-72
2023/06/19 07:07:54;;;;;;;5.88;4.18;;;;;;;22.08;90.72;100243.88;5161015;28;20034;-75
2023/06/19 07:10:24;;;;;;;8.68;4.78;;;;;;;22.14;91.04;100237.16;5143727;28;20046;-75
2023/06/19 07:12:55;;;;;;;9.57;4.68;;;;;;;22.30;89.55;100243.69;5154253;28;20030;-76
2023/06/19 07:15:25;;;;;;;8.13;4.57;;;;;;;22.47;88.31;100245.72;5152499;28;20500;-75
2023/06/19 07:17:56;;;;;;;7.93;4.28;;;;;;;22.41;91.19;100254.22;5158712;28;20034;-75
2023/06/19 07:20:26;;;;;;;7.20;4.78;;;;;;;22.61;85.52;100252.44;5158557;28;20041;-75
2023/06/19 07:22:57;;;;;;;6.97;4.65;;;;;;;22.61;87.68;100247.13;5161263;28;20026;-76
2023/06/19 07:25:27;;;;;;;5.68;4.10;;;;;;;22.90;85.52;100252.34;5156337;28;20030;-75
2023/06/19 07:27:57;;;;;;;7.10;4.10;;;;;;;23.46;85.85;100253.31;5163198;28;20117;-75
2023/06/19 07:30:28;;;;;;;6.93;4.22;;;;;;;23.96;83.63;100254.72;5162979;28;20127;-75
2023/06/19 07:32:58;;;;;;;5.90;4.28;;;;;;;24.30;81.41;100260.31;5158448;28;20041;-77
2023/06/19 07:35:28;;;;;;;6.97;4.53;;;;;;;25.58;76.77;100251.75;5158592;28;20077;-75
2023/06/19 07:37:59;;;;;;;5.97;4.05;;;;;;;25.89;72.80;100255.66;5160707;28;20439;-75
2023/06/19 07:40:29;;;;;;;6.10;4.32;;;;;;;25.66;72.83;100257.16;5159092;28;20492;-75
2023/06/19 07:42:59;;;;;;;6.32;4.13;;;;;;;26.49;70.86;100252.75;5160912;28;20022;-75
2023/06/19 07:45:30;;;;;;;5.68;4.32;;;;;;;26.74;70.47;100254.50;5159891;28;20062;-76
2023/06/19 07:48:00;;;;;;;6.85;4.63;;;;;;;26.46;68.70;100252.19;5160774;28;20041;-76
2023/06/19 07:50:31;;;;;;;5.88;4.10;;;;;;;27.23;68.77;100246.34;5161074;28;20030;-76
2023/06/19 07:53:02;;;;;;;8.05;4.10;;;;;;;27.71;67.23;100256.19;5141631;28;20052;-76
2023/06/19 07:55:32;;;;;;;5.07;3.78;;;;;;;27.47;67.56;100256.25;5158821;28;20022;-75
2023/06/19 07:58:03;;;;;;;6.72;4.20;;;;;;;26.98;68.88;100250.03;5159562;28;20504;-75
2023/06/19 08:00:33;;;;;;;6.38;4.13;;;;;;;27.14;71.59;100247.34;5161317;28;20033;-76
2023/06/19 08:03:05;;;;;;;6.82;4.20;;;;;;;27.38;67.25;100244.69;5160123;28;20022;-76
2023/06/19 08:05:35;;;;;;;10.02;4.00;;;;;;;27.31;67.85;100249.03;5162634;28;20030;-76
2023/06/19 08:08:05;;;;;;;6.15;4.10;;;;;;;26.66;73.20;100243.75;5161788;28;20520;-76
2023/06/19 08:10:36;;;;;;;5.60;3.72;;;;;;;26.59;71.05;100249.94;5163369;28;20673;-76
2023/06/19 08:13:06;;;;;;;5.88;4.10;;;;;;;26.68;69.94;100248.97;5159798;28;20018;-75
2023/06/19 08:15:37;;;;;;;7.22;4.05;;;;;;;26.31;73.70;100243.13;5162786;28;20088;-76
2023/06/19 08:18:07;;;;;;;6.90;4.40;;;;;;;27.58;70.13;100229.88;5164518;28;20119;-75
2023/06/19 08:20:37;;;;;;;5.40;3.72;;;;;;;28.08;68.66;100229.56;5170380;28;20031;-74
2023/06/19 08:23:08;;;;;;;5.22;3.85;;;;;;;28.17;69.21;100226.69;5148358;28;20373;-75
2023/06/19 08:25:38;;;;;;;5.28;3.70;;;;;;;29.50;64.69;100226.16;5169192;28;20195;-75
2023/06/19 08:28:09;;;;;;;4.70;3.40;;;;;;;30.11;62.30;100232.06;5146722;28;21633;-75
2023/06/19 08:30:39;;;;;;;7.03;4.60;;;;;;;29.76;64.73;100240.06;5164683;28;20030;-72
2023/06/19 08:33:10;;;;;;;4.68;3.40;;;;;;;30.67;61.79;100239.47;5159670;28;20054;-75
2023/06/19 08:35:40;;;;;;;5.20;3.78;;;;;;;31.15;60.13;100242.25;5163772;28;20060;-72
2023/06/19 08:38:10;;;;;;;8.90;3.60;;;;;;;31.68;57.57;100244.38;5163803;28;20047;-75
2023/06/19 08:40:45;;;;;;;6.07;3.58;;;;;;;30.55;62.08;100243.63;5164748;28;20034;-74
2023/06/19 08:43:15;;;;;;;4.70;3.63;;;;;;;31.14;60.92;100246.00;5144782;28;20109;-76
2023/06/19 08:46:11;;;;;;;5.47;3.42;;;;;;;30.73;58.73;100240.53;5167896;28;20121;-77
2023/06/19 08:48:41;;;;;;;5.53;3.72;;;;;;;30.38;59.89;100247.59;5149077;28;20336;-72
2023/06/19 08:51:13;;;;;;;5.50;3.50;;;;;;;31.53;58.57;100240.91;5145275;28;20034;-76
2023/06/19 08:53:55;;;;;;;8.93;4.13;;;;;;;32.55;57.64;100242.81;5164304;28;20037;-76
2023/06/19 08:56:25;;;;;;;5.28;3.60;;;;;;;33.35;53.18;100239.88;5162125;28;20512;-75
2023/06/19 08:58:56;;;;;;;4.97;3.50;;;;;;;31.89;57.41;100249.72;5147030;28;20030;-76
2023/06/19 09:01:26;;;;;;;4.25;2.92;;;;;;;31.75;58.38;100245.28;5162799;28;20719;-76
2023/06/19 09:03:57;;;;;;;6.07;3.03;;;;;;;32.72;57.86;100236.84;5148018;28;20029;-75
2023/06/19 09:06:27;;;;;;;6.10;3.40;;;;;;;32.65;58.17;100241.38;5162303;28;20065;-76
2023/06/19 09:08:59;;;;;;;3.57;2.97;;;;;;;33.24;55.95;100237.81;5147827;28;20786;-75
2023/06/19 09:11:29;;;;;;;5.18;3.88;;;;;;;31.12;58.21;100245.34;5165187;28;20281;-75
2023/06/19 09:13:59;;;;;;;4.30;3.03;;;;;;;32.04;58.81;100245.03;5165008;28;20033;-76
2023/06/19 09:16:40;;;;;;;5.83;3.27;;;;;;;32.22;58.75;100247.25;5164165;28;20304;-77
2023/06/19 09:19:19;;;;;;;4.20;3.08;;;;;;;32.60;54.85;100248.44;5163575;28;20053;-76
2023/06/19 09:21:49;;;;;;;5.93;3.00;;;;;;;32.62;55.39;100249.94;5165320;28;20107;-76
2023/06/19 09:24:20;;;;;;;4.43;3.10;;;;;;;31.65;57.89;100255.59;5161262;28;20018;-76
2023/06/19 09:26:51;;;;;;;4.80;3.60;;;;;;;31.78;54.90;100247.59;5167177;28;20080;-73
2023/06/19 09:29:21;;;;;;;9.25;3.55;;;;;;;30.96;58.33;100252.84;5164250;28;20434;-74
2023/06/19 09:31:51;;;;;;;6.32;3.72;;;;;;;30.90;59.16;100248.22;5166220;28;20030;-75
2023/06/19 09:34:22;;;;;;;4.43;3.50;;;;;;;32.67;57.62;100236.59;5147039;28;20117;-74
2023/06/19 09:36:52;;;;;;;5.33;3.67;;;;;;;32.10;56.07;100244.25;5165470;28;20272;-75
2023/06/19 09:39:27;;;;;;;8.10;3.22;;;;;;;33.77;52.44;100236.75;5160189;28;20365;-74
2023/06/19 09:41:59;;;;;;;4.15;3.30;;;;;;;32.66;53.72;100237.66;5150001;28;20025;-75
2023/06/19 09:44:35;;;;;;;4.70;3.58;;;;;;;32.14;54.69;100244.66;5151031;28;20034;-76
2023/06/19 09:47:28;;;;;;;4.88;3.58;;;;;;;33.07;54.42;100241.09;5164497;28;20488;-75
2023/06/19 09:50:01;;;;;;;5.88;3.50;;;;;;;33.56;52.20;100233.41;5148979;28;20038;-75
2023/06/19 09:52:31;;;;;;;3.97;3.03;;;;;;;33.47;51.81;100229.25;5165344;28;20034;-75
2023/06/19 09:55:05;;;;;;;4.25;3.08;;;;;;;34.03;51.00;100230.44;5167172;28;20044;-74
2023/06/19 09:57:38;;;;;;;4.78;3.35;;;;;;;32.59;50.88;100244.06;5168771;28;20153;-75
2023/06/19 10:00:12;;;;;;;4.80;2.92;;;;;;;33.75;50.39;100227.16;5156762;28;20034;-76
2023/06/19 10:02:46;;;;;;;4.70;3.23;;;;;;;32.36;53.24;100233.56;5166508;28;20032;-75
2023/06/19 10:05:18;;;;;;;7.30;3.30;;;;;;;32.49;55.10;100239.03;5175390;28;20277;-76
2023/06/19 10:07:49;;;;;;;5.70;3.22;;;;;;;32.87;52.97;100237.50;5177046;28;20018;-76
2023/06/19 10:10:24;;;;;;;5.68;3.80;;;;;;;32.44;52.64;100233.41;5155557;28;20028;-75
2023/06/19 10:13:11;;;;;;;5.57;3.35;;;;;;;32.63;53.71;100229.94;5151996;28;20280;-74
2023/06/19 10:15:43;;;;;;;5.05;3.67;;;;;;;31.79;53.04;100237.59;5171872;28;20025;-75
2023/06/19 10:18:17;;;;;;;6.55;3.60;;;;;;;32.12;53.87;100231.38;5166984;28;20377;-75
2023/06/19 10:20:48;;;;;;;6.25;4.03;;;;;;;31.92;52.86;100235.84;5168647;28;20021;-70
2023/06/19 10:23:21;;;;;;;7.57;3.95;;;;;;;32.08;53.96;100235.47;5165162;28;20092;-74
2023/06/19 10:25:58;;;;;;;8.98;4.10;;;;;;;32.04;53.17;100234.22;5146645;28;20099;-73
2023/06/19 10:28:33;;;;;;;6.00;4.00;;;;;;;32.32;56.31;100245.00;5152004;28;20022;-75
2023/06/19 10:31:06;;;;;;;6.93;4.00;;;;;;;31.86;54.62;100242.00;5172169;28;20025;-75
2023/06/19 10:33:40;;;;;;;7.57;4.10;;;;;;;31.73;55.09;100244.63;5157544;28;20040;-75
2023/06/19 10:36:16;;;;;;;5.35;3.95;;;;;;;31.88;54.88;100245.34;5171129;28;20030;-76
2023/06/19 10:39:06;;;;;;;6.97;3.63;;;;;;;31.80;51.94;100247.38;5170835;28;20304;-74
2023/06/19 10:41:40;;;;;;;5.93;3.63;;;;;;;31.21;52.31;100246.88;5171369;28;20030;-75
2023/06/19 10:44:13;;;;;;;5.28;3.67;;;;;;;31.27;53.75;100251.53;5173469;28;20396;-74
2023/06/19 10:46:43;;;;;;;6.38;4.05;;;;;;;30.67;54.06;100246.72;5167286;28;20033;-74
2023/06/19 10:49:13;;;;;;;6.65;3.90;;;;;;;31.09;54.66;100248.41;5153923;28;20038;-74
2023/06/19 10:51:44;;;;;;;7.55;4.20;;;;;;;30.83;53.55;100257.28;5153498;28;20025;-74
2023/06/19 10:54:15;;;;;;;7.63;4.15;;;;;;;30.57;54.61;100256.97;5162711;28;20033;-74
2023/06/19 10:56:48;;;;;;;5.60;3.80;;;;;;;30.44;54.98;100252.22;5150741;28;20033;-74
2023/06/19 10:59:18;;;;;;;6.82;4.00;;;;;;;30.34;55.55;100251.69;5152770;28;20072;-74
2023/06/19 11:01:50;;;;;;;6.00;3.88;;;;;;;30.96;55.02;100248.28;5168796;28;20025;-73
2023/06/19 11:04:23;;;;;;;5.40;3.75;;;;;;;30.94;54.98;100244.94;5164048;28;20030;-73
2023/06/19 11:06:53;;;;;;;4.38;3.15;;;;;;;30.95;55.43;100245.75;5162741;28;20179;-75
2023/06/19 11:09:25;;;;;;;4.57;3.25;;;;;;;31.35;55.90;100250.56;5169573;28;20113;-75
2023/06/19 11:11:56;;;;;;;5.00;3.20;;;;;;;31.40;55.01;100240.81;5154819;28;20499;-72
2023/06/19 11:14:29;;;;;;;4.68;3.38;;;;;;;30.87;55.14;100230.53;5154356;28;20066;-75
2023/06/19 11:17:00;;;;;;;6.30;3.60;;;;;;;30.68;55.36;100240.28;5170047;28;20025;-74
2023/06/19 11:19:31;;;;;;;5.63;3.40;;;;;;;30.93;55.35;100248.69;5173415;28;20041;-74
2023/06/19 11:22:03;;;;;;;7.97;3.33;;;;;;;30.63;56.67;100245.44;5168389;28;20510;-73
2023/06/19 11:24:33;;;;;;;3.83;3.05;;;;;;;30.98;55.50;100235.41;5168224;28;20454;-75
2023/06/19 11:27:05;;;;;;;4.50;3.22;;;;;;;30.69;59.01;100241.94;5169825;28;20029;-74
2023/06/19 11:29:36;;;;;;;4.50;3.10;;;;;;;30.39;57.78;100232.25;5161510;28;20026;-74
2023/06/19 11:32:14;;;;;;;4.72;3.30;;;;;;;30.67;57.23;100223.25;5142608;28;20030;-75
2023/06/19 11:34:44;;;;;;;6.20;3.25;;;;;;;30.82;57.22;100228.59;5147736;28;20395;-74
2023/06/19 11:37:17;;;;;;;5.33;3.30;;;;;;;30.85;55.96;100235.28;5159696;28;20018;-74
2023/06/19 11:39:49;;;;;;;5.68;3.85;;;;;;;30.47;56.13;100234.81;5165705;28;20273;-71
2023/06/19 11:42:20;;;;;;;5.55;3.70;;;;;;;30.30;57.17;100241.47;5168941;28;20022;-74